createdAt,value
2017-03-14T00:00:34.858Z,5.73
2017-03-14T00:01:15.733Z,5.71
2017-03-14T00:01:56.600Z,5.71
2017-03-14T00:02:37.478Z,5.68
2017-03-14T00:03:18.351Z,5.56
2017-03-14T00:03:59.227Z,5.39
2017-03-14T00:04:40.106Z,5.46
2017-03-14T00:05:20.989Z,5.47
2017-03-14T00:06:01.868Z,5.56
2017-03-14T00:06:42.748Z,5.56
2017-03-14T00:07:23.653Z,5.57
2017-03-14T00:08:04.513Z,5.59
2017-03-14T00:08:45.393Z,5.61
2017-03-14T00:09:26.269Z,5.59
2017-03-14T00:10:07.148Z,5.56
2017-03-14T00:10:48.019Z,5.59
2017-03-14T00:11:28.902Z,5.59
2017-03-14T00:12:09.782Z,5.61
2017-03-14T00:12:50.658Z,5.48
2017-03-14T00:13:31.524Z,5.48
2017-03-14T00:14:12.401Z,5.59
2017-03-14T00:14:53.277Z,5.59
2017-03-14T00:15:34.152Z,5.53
2017-03-14T00:16:15.036Z,5.47
2017-03-14T00:16:55.913Z,5.53
2017-03-14T00:17:36.791Z,5.44
2017-03-14T00:18:17.667Z,5.56
2017-03-14T00:18:58.561Z,5.47
2017-03-14T00:19:39.441Z,5.47
2017-03-14T00:20:20.320Z,5.43
2017-03-14T00:21:01.201Z,5.47
2017-03-14T00:21:42.089Z,5.5
2017-03-14T00:22:22.962Z,5.38
2017-03-14T00:23:04.064Z,5.39
2017-03-14T00:23:45.346Z,5.39
2017-03-14T00:24:26.228Z,5.44
2017-03-14T00:25:07.101Z,5.39
2017-03-14T00:25:47.982Z,5.3
2017-03-14T00:26:28.858Z,5.3
2017-03-14T00:27:09.744Z,5.28
2017-03-14T00:27:50.628Z,5.17
2017-03-14T00:28:31.509Z,5.11
2017-03-14T00:29:12.376Z,5.21
2017-03-14T00:29:53.259Z,5.3
2017-03-14T00:30:34.143Z,5.35
2017-03-14T00:31:15.023Z,5.29
2017-03-14T00:31:55.904Z,5.28
2017-03-14T00:32:36.782Z,5.26
2017-03-14T00:33:17.658Z,5.3
2017-03-14T00:33:58.537Z,5.05
2017-03-14T00:34:39.415Z,5.04
2017-03-14T00:35:20.293Z,5.18
2017-03-14T00:36:01.170Z,5.25
2017-03-14T00:36:42.048Z,5.28
2017-03-14T00:37:22.928Z,5.28
2017-03-14T00:38:03.831Z,5.32
2017-03-14T00:38:44.682Z,5.3
2017-03-14T00:39:25.573Z,5.32
2017-03-14T00:40:06.447Z,5.28
2017-03-14T00:40:47.328Z,5.28
2017-03-14T00:41:28.202Z,5.33
2017-03-14T00:42:09.096Z,5.33
2017-03-14T00:42:49.989Z,5.38
2017-03-14T00:43:30.867Z,5.3
2017-03-14T00:44:11.751Z,5.28
2017-03-14T00:44:52.628Z,5.23
2017-03-14T00:45:33.512Z,5.33
2017-03-14T00:46:14.394Z,5.35
2017-03-14T00:46:55.269Z,5.39
2017-03-14T00:47:36.142Z,5.51
2017-03-14T00:48:17.382Z,5.51
2017-03-14T00:48:58.272Z,5.56
2017-03-14T00:49:39.140Z,5.47
2017-03-14T00:50:20.032Z,5.5
2017-03-14T00:51:00.904Z,5.46
2017-03-14T00:51:41.782Z,5.51
2017-03-14T00:52:22.655Z,5.48
2017-03-14T00:53:03.532Z,5.47
2017-03-14T00:53:44.419Z,5.56
2017-03-14T00:54:25.295Z,5.61
2017-03-14T00:55:06.180Z,5.54
2017-03-14T00:55:47.052Z,5.56
2017-03-14T00:56:27.931Z,5.57
2017-03-14T00:57:08.814Z,5.57
2017-03-14T00:57:49.692Z,5.61
2017-03-14T00:58:30.570Z,5.53
2017-03-14T00:59:11.459Z,5.53
2017-03-14T00:59:52.341Z,5.51
2017-03-14T01:00:33.224Z,5.61
2017-03-14T01:01:14.107Z,5.62
2017-03-14T01:01:54.989Z,5.65
2017-03-14T01:02:35.862Z,5.62
2017-03-14T01:03:16.731Z,5.65
2017-03-14T01:03:57.614Z,5.59
2017-03-14T01:04:38.495Z,5.59
2017-03-14T01:05:19.376Z,5.59
2017-03-14T01:06:00.254Z,5.56
2017-03-14T01:06:41.138Z,5.65
2017-03-14T01:07:22.019Z,5.64
2017-03-14T01:08:02.899Z,5.71
2017-03-14T01:08:43.777Z,5.66
2017-03-14T01:09:24.656Z,5.72
2017-03-14T01:10:05.541Z,5.75
2017-03-14T01:10:46.423Z,5.68
2017-03-14T01:11:27.297Z,5.68
2017-03-14T01:12:08.172Z,5.64
2017-03-14T01:12:49.050Z,5.68
2017-03-14T01:13:29.929Z,5.73
2017-03-14T01:14:10.807Z,5.68
2017-03-14T01:14:51.699Z,5.65
2017-03-14T01:15:32.589Z,5.66
2017-03-14T01:16:13.450Z,5.65
2017-03-14T01:16:54.329Z,5.71
2017-03-14T01:17:35.213Z,5.75
2017-03-14T01:18:16.083Z,5.72
2017-03-14T01:18:56.965Z,5.68
2017-03-14T01:19:37.842Z,5.71
2017-03-14T01:20:18.720Z,5.76
2017-03-14T01:20:59.594Z,5.66
2017-03-14T01:21:40.472Z,5.79
2017-03-14T01:22:21.349Z,5.73
2017-03-14T01:23:02.233Z,5.83
2017-03-14T01:23:43.117Z,5.76
2017-03-14T01:24:23.996Z,5.66
2017-03-14T01:25:04.875Z,5.71
2017-03-14T01:25:45.768Z,5.66
2017-03-14T01:26:26.652Z,5.65
2017-03-14T01:27:07.529Z,5.71
2017-03-14T01:27:48.405Z,5.66
2017-03-14T01:28:29.289Z,5.71
2017-03-14T01:29:10.171Z,5.65
2017-03-14T01:29:51.050Z,5.66
2017-03-14T01:30:31.916Z,5.69
2017-03-14T01:31:12.787Z,5.72
2017-03-14T01:31:53.668Z,5.72
2017-03-14T01:32:34.551Z,5.73
2017-03-14T01:33:15.423Z,5.73
2017-03-14T01:33:56.301Z,5.75
2017-03-14T01:34:37.179Z,5.83
2017-03-14T01:35:18.061Z,5.75
2017-03-14T01:35:58.953Z,5.71
2017-03-14T01:36:39.830Z,5.73
2017-03-14T01:37:20.717Z,5.72
2017-03-14T01:38:02.019Z,5.76
2017-03-14T01:39:21.655Z,5.72
2017-03-14T01:40:02.539Z,5.75
2017-03-14T01:40:43.433Z,5.82
2017-03-14T01:41:24.298Z,5.71
2017-03-14T01:42:05.179Z,5.82
2017-03-14T01:42:46.056Z,5.69
2017-03-14T01:43:26.937Z,5.71
2017-03-14T01:44:07.817Z,5.65
2017-03-14T01:44:48.693Z,5.71
2017-03-14T01:45:29.571Z,5.68
2017-03-14T01:46:10.452Z,5.61
2017-03-14T01:46:51.333Z,5.54
2017-03-14T01:47:32.208Z,5.54
2017-03-14T01:48:13.088Z,5.53
2017-03-14T01:48:53.971Z,5.57
2017-03-14T01:49:34.855Z,5.57
2017-03-14T01:50:15.736Z,5.59
2017-03-14T01:50:56.614Z,5.54
2017-03-14T01:51:37.492Z,5.47
2017-03-14T01:52:18.370Z,5.51
2017-03-14T01:52:59.254Z,5.56
2017-03-14T01:53:40.133Z,5.46
2017-03-14T01:54:21.014Z,5.59
2017-03-14T01:55:01.894Z,5.59
2017-03-14T01:55:42.777Z,5.59
2017-03-14T01:56:23.670Z,5.54
2017-03-14T01:57:04.549Z,5.59
2017-03-14T01:57:45.573Z,5.5
2017-03-14T01:58:26.459Z,5.56
2017-03-14T01:59:07.335Z,5.57
2017-03-14T01:59:48.210Z,5.59
2017-03-14T02:00:29.091Z,5.53
2017-03-14T02:01:10.137Z,5.56
2017-03-14T02:01:51.026Z,5.57
2017-03-14T02:02:31.901Z,5.59
2017-03-14T02:03:12.777Z,5.56
2017-03-14T02:03:53.659Z,5.54
2017-03-14T02:04:34.539Z,5.59
2017-03-14T02:05:15.420Z,5.54
2017-03-14T02:05:56.301Z,5.59
2017-03-14T02:06:37.180Z,5.59
2017-03-14T02:07:18.049Z,5.54
2017-03-14T02:07:58.927Z,5.47
2017-03-14T02:08:39.806Z,5.48
2017-03-14T02:09:20.696Z,5.48
2017-03-14T02:10:01.574Z,5.53
2017-03-14T02:10:42.450Z,5.56
2017-03-14T02:11:23.316Z,5.56
2017-03-14T02:12:04.200Z,5.61
2017-03-14T02:12:45.078Z,5.54
2017-03-14T02:13:25.958Z,5.56
2017-03-14T02:14:06.837Z,5.61
2017-03-14T02:14:47.717Z,5.68
2017-03-14T02:15:28.628Z,5.66
2017-03-14T02:16:09.501Z,5.71
2017-03-14T02:16:50.376Z,5.59
2017-03-14T02:17:31.251Z,5.65
2017-03-14T02:18:12.133Z,5.68
2017-03-14T02:18:53.016Z,5.61
2017-03-14T02:19:33.907Z,5.59
2017-03-14T02:20:14.785Z,5.61
2017-03-14T02:20:55.667Z,5.54
2017-03-14T02:21:36.546Z,5.65
2017-03-14T02:22:17.421Z,5.59
2017-03-14T02:22:58.307Z,5.59
2017-03-14T02:23:39.184Z,5.59
2017-03-14T02:24:20.066Z,5.61
2017-03-14T02:25:00.945Z,5.59
2017-03-14T02:25:41.826Z,5.56
2017-03-14T02:26:22.715Z,5.57
2017-03-14T02:27:03.593Z,5.56
2017-03-14T02:27:44.473Z,5.61
2017-03-14T02:28:25.354Z,5.57
2017-03-14T02:29:06.230Z,5.57
2017-03-14T02:29:47.113Z,5.48
2017-03-14T02:30:27.990Z,5.59
2017-03-14T02:31:08.870Z,5.5
2017-03-14T02:31:49.751Z,5.48
2017-03-14T02:32:30.624Z,5.51
2017-03-14T02:33:11.510Z,5.47
2017-03-14T02:33:52.400Z,5.46
2017-03-14T02:34:33.285Z,5.57
2017-03-14T02:35:14.165Z,5.53
2017-03-14T02:35:55.045Z,5.51
2017-03-14T02:36:35.933Z,5.57
2017-03-14T02:37:16.797Z,5.56
2017-03-14T02:37:57.675Z,5.51
2017-03-14T02:38:38.553Z,5.5
2017-03-14T02:39:19.443Z,5.57
2017-03-14T02:40:00.324Z,5.56
2017-03-14T02:40:41.211Z,5.57
2017-03-14T02:41:22.098Z,5.43
2017-03-14T02:42:02.989Z,5.46
2017-03-14T02:42:43.857Z,5.46
2017-03-14T02:43:24.739Z,5.43
2017-03-14T02:44:05.626Z,5.44
2017-03-14T02:44:46.507Z,5.47
2017-03-14T02:45:27.390Z,5.46
2017-03-14T02:46:08.273Z,5.46
2017-03-14T02:46:49.154Z,5.48
2017-03-14T02:47:30.032Z,5.39
2017-03-14T02:48:10.934Z,5.41
2017-03-14T02:48:51.790Z,5.48
2017-03-14T02:49:32.672Z,5.39
2017-03-14T02:50:13.549Z,5.38
2017-03-14T02:50:54.429Z,5.43
2017-03-14T02:51:35.309Z,5.41
2017-03-14T02:52:16.194Z,5.41
2017-03-14T02:52:57.080Z,5.38
2017-03-14T02:53:37.965Z,5.38
2017-03-14T02:54:18.850Z,5.51
2017-03-14T02:54:59.732Z,5.46
2017-03-14T02:55:40.612Z,5.47
2017-03-14T02:56:21.493Z,5.43
2017-03-14T02:57:02.382Z,5.46
2017-03-14T02:57:43.261Z,5.47
2017-03-14T02:58:24.144Z,5.38
2017-03-14T02:59:05.021Z,5.43
2017-03-14T02:59:45.906Z,5.43
2017-03-14T03:00:26.787Z,5.48
2017-03-14T03:01:07.665Z,5.5
2017-03-14T03:01:48.558Z,5.46
2017-03-14T03:02:29.437Z,5.46
2017-03-14T03:03:10.311Z,5.41
2017-03-14T03:03:51.198Z,5.48
2017-03-14T03:04:32.079Z,5.53
2017-03-14T03:05:12.964Z,5.5
2017-03-14T03:05:53.841Z,5.46
2017-03-14T03:06:34.722Z,5.43
2017-03-14T03:07:15.604Z,5.46
2017-03-14T03:07:56.492Z,5.51
2017-03-14T03:08:37.364Z,5.48
2017-03-14T03:09:18.244Z,5.35
2017-03-14T03:09:59.136Z,5.48
2017-03-14T03:10:40.021Z,5.46
2017-03-14T03:11:20.900Z,5.43
2017-03-14T03:12:01.776Z,5.5
2017-03-14T03:12:42.654Z,5.46
2017-03-14T03:13:23.539Z,5.46
2017-03-14T03:14:04.420Z,5.5
2017-03-14T03:14:45.292Z,5.46
2017-03-14T03:15:26.169Z,5.48
2017-03-14T03:16:07.041Z,5.48
2017-03-14T03:16:47.923Z,5.51
2017-03-14T03:17:28.804Z,5.51
2017-03-14T03:18:09.689Z,5.48
2017-03-14T03:18:50.560Z,5.51
2017-03-14T03:19:31.480Z,5.38
2017-03-14T03:20:12.363Z,5.5
2017-03-14T03:20:53.233Z,5.47
2017-03-14T03:21:34.113Z,5.44
2017-03-14T03:22:14.995Z,5.47
2017-03-14T03:22:55.871Z,5.47
2017-03-14T03:23:36.758Z,5.38
2017-03-14T03:24:17.615Z,5.36
2017-03-14T03:24:58.494Z,5.39
2017-03-14T03:25:39.372Z,5.38
2017-03-14T03:26:20.260Z,5.39
2017-03-14T03:27:01.131Z,5.17
2017-03-14T03:27:42.007Z,5.2
2017-03-14T03:28:22.873Z,5.18
2017-03-14T03:29:03.753Z,5.21
2017-03-14T03:29:44.634Z,5.26
2017-03-14T03:30:25.510Z,5.25
2017-03-14T03:31:06.394Z,5.21
2017-03-14T03:31:47.267Z,5.38
2017-03-14T03:32:28.145Z,5.39
2017-03-14T03:33:09.027Z,5.44
2017-03-14T03:33:49.909Z,5.46
2017-03-14T03:34:30.790Z,5.39
2017-03-14T03:35:11.671Z,5.47
2017-03-14T03:35:52.549Z,5.5
2017-03-14T03:36:33.434Z,5.36
2017-03-14T03:37:14.307Z,5.35
2017-03-14T03:37:55.183Z,5.32
2017-03-14T03:39:34.100Z,5.44
2017-03-14T03:40:14.978Z,5.23
2017-03-14T03:40:55.870Z,5.21
2017-03-14T03:41:36.743Z,5.17
2017-03-14T03:42:17.632Z,5.17
2017-03-14T03:42:58.496Z,5.21
2017-03-14T03:43:39.379Z,5.3
2017-03-14T03:44:20.264Z,5.29
2017-03-14T03:45:01.161Z,5.38
2017-03-14T03:45:42.043Z,5.43
2017-03-14T03:46:22.924Z,5.46
2017-03-14T03:47:03.804Z,5.41
2017-03-14T03:47:44.683Z,5.41
2017-03-14T03:48:25.560Z,5.41
2017-03-14T03:49:06.434Z,5.38
2017-03-14T03:49:47.320Z,5.36
2017-03-14T03:50:28.197Z,5.38
2017-03-14T03:51:09.074Z,5.41
2017-03-14T03:51:49.954Z,5.25
2017-03-14T03:52:30.831Z,5.2
2017-03-14T03:53:11.711Z,5.17
2017-03-14T03:53:52.590Z,5.08
2017-03-14T03:54:33.465Z,5.15
2017-03-14T03:55:14.347Z,5.11
2017-03-14T03:55:55.224Z,5.23
2017-03-14T03:56:36.109Z,5.28
2017-03-14T03:57:16.991Z,5.25
2017-03-14T03:57:57.869Z,5.23
2017-03-14T03:58:38.759Z,5.23
2017-03-14T03:59:19.641Z,5.3
2017-03-14T04:00:00.517Z,5.32
2017-03-14T04:00:41.388Z,5.38
2017-03-14T04:01:22.270Z,5.39
2017-03-14T04:02:03.152Z,5.38
2017-03-14T04:02:44.030Z,5.41
2017-03-14T04:03:24.906Z,5.38
2017-03-14T04:04:05.792Z,5.36
2017-03-14T04:04:46.672Z,5.35
2017-03-14T04:05:27.577Z,5.32
2017-03-14T04:06:08.442Z,5.43
2017-03-14T04:06:49.325Z,5.38
2017-03-14T04:07:30.204Z,5.41
2017-03-14T04:08:11.085Z,5.43
2017-03-14T04:08:51.973Z,5.51
2017-03-14T04:09:32.851Z,5.32
2017-03-14T04:10:13.733Z,5.44
2017-03-14T04:10:54.616Z,5.28
2017-03-14T04:11:35.499Z,5.15
2017-03-14T04:12:16.373Z,5
2017-03-14T04:12:57.249Z,5.04
2017-03-14T04:13:38.124Z,4.93
2017-03-14T04:14:19.001Z,5.05
2017-03-14T04:14:59.881Z,5.07
2017-03-14T04:15:40.762Z,5.05
2017-03-14T04:16:21.638Z,5.05
2017-03-14T04:17:02.520Z,4.99
2017-03-14T04:17:43.400Z,4.94
2017-03-14T04:18:24.284Z,5.02
2017-03-14T04:19:05.162Z,5
2017-03-14T04:19:46.042Z,4.93
2017-03-14T04:20:26.922Z,5.05
2017-03-14T04:21:07.804Z,5.04
2017-03-14T04:21:48.680Z,5
2017-03-14T04:22:29.558Z,5.02
2017-03-14T04:23:10.430Z,5
2017-03-14T04:23:51.310Z,5.05
2017-03-14T04:24:32.195Z,4.97
2017-03-14T04:25:13.078Z,5.12
2017-03-14T04:25:53.956Z,5.07
2017-03-14T04:26:34.836Z,5.1
2017-03-14T04:27:15.724Z,5.14
2017-03-14T04:27:56.601Z,5.12
2017-03-14T04:28:37.481Z,5.21
2017-03-14T04:29:18.348Z,5.33
2017-03-14T04:29:59.226Z,5.47
2017-03-14T04:30:40.105Z,5.38
2017-03-14T04:31:21.009Z,5.43
2017-03-14T04:32:01.885Z,5.53
2017-03-14T04:32:42.763Z,5.46
2017-03-14T04:33:23.646Z,5.43
2017-03-14T04:34:04.529Z,5.39
2017-03-14T04:34:45.413Z,5.35
2017-03-14T04:35:26.293Z,5.51
2017-03-14T04:36:07.172Z,5.51
2017-03-14T04:36:48.054Z,5.46
2017-03-14T04:37:28.938Z,5.46
2017-03-14T04:38:09.816Z,5.44
2017-03-14T04:38:50.699Z,5.44
2017-03-14T04:39:31.581Z,5.54
2017-03-14T04:40:12.462Z,5.47
2017-03-14T04:40:53.344Z,5.48
2017-03-14T04:41:34.221Z,5.57
2017-03-14T04:42:15.103Z,5.61
2017-03-14T04:42:55.986Z,5.59
2017-03-14T04:43:36.871Z,5.46
2017-03-14T04:44:17.751Z,5.53
2017-03-14T04:44:58.635Z,5.56
2017-03-14T04:45:39.511Z,5.56
2017-03-14T04:46:20.389Z,5.57
2017-03-14T04:47:01.273Z,5.56
2017-03-14T04:47:42.150Z,5.59
2017-03-14T04:48:23.026Z,5.62
2017-03-14T04:49:03.909Z,5.64
2017-03-14T04:49:44.791Z,5.61
2017-03-14T04:50:25.684Z,5.61
2017-03-14T04:51:06.560Z,5.56
2017-03-14T04:51:47.444Z,5.72
2017-03-14T04:52:28.326Z,5.65
2017-03-14T04:53:09.210Z,5.69
2017-03-14T04:53:50.094Z,5.71
2017-03-14T04:54:30.974Z,5.66
2017-03-14T04:55:11.854Z,5.68
2017-03-14T04:55:52.730Z,5.57
2017-03-14T04:56:33.612Z,5.65
2017-03-14T04:57:14.491Z,5.69
2017-03-14T04:57:55.372Z,5.71
2017-03-14T04:58:36.255Z,5.75
2017-03-14T04:59:17.141Z,5.66
2017-03-14T04:59:58.013Z,5.8
2017-03-14T05:00:38.895Z,5.75
2017-03-14T05:01:19.777Z,5.73
2017-03-14T05:02:00.660Z,5.66
2017-03-14T05:02:41.537Z,5.71
2017-03-14T05:03:22.416Z,5.71
2017-03-14T05:04:03.298Z,5.66
2017-03-14T05:04:44.169Z,5.64
2017-03-14T05:05:25.054Z,5.68
2017-03-14T05:06:05.934Z,5.66
2017-03-14T05:06:46.815Z,5.69
2017-03-14T05:07:27.698Z,5.71
2017-03-14T05:08:08.570Z,5.64
2017-03-14T05:08:49.474Z,5.64
2017-03-14T05:09:30.330Z,5.65
2017-03-14T05:10:11.208Z,5.73
2017-03-14T05:10:52.090Z,5.72
2017-03-14T05:11:32.961Z,5.75
2017-03-14T05:12:13.840Z,5.71
2017-03-14T05:12:54.722Z,5.69
2017-03-14T05:13:35.600Z,5.66
2017-03-14T05:14:16.482Z,5.68
2017-03-14T05:14:57.359Z,5.56
2017-03-14T05:15:38.245Z,5.57
2017-03-14T05:16:19.121Z,5.62
2017-03-14T05:17:00.000Z,5.65
2017-03-14T05:17:40.881Z,5.62
2017-03-14T05:18:21.762Z,5.54
2017-03-14T05:19:02.647Z,5.59
2017-03-14T05:19:43.537Z,5.57
2017-03-14T05:20:24.418Z,5.59
2017-03-14T05:21:05.307Z,5.54
2017-03-14T05:21:46.162Z,5.47
2017-03-14T05:22:27.045Z,5.46
2017-03-14T05:23:07.928Z,5.51
2017-03-14T05:23:48.807Z,5.44
2017-03-14T05:24:29.683Z,5.54
2017-03-14T05:25:10.560Z,5.44
2017-03-14T05:25:51.442Z,5.5
2017-03-14T05:26:32.322Z,5.32
2017-03-14T05:27:13.189Z,5.41
2017-03-14T05:27:54.063Z,5.43
2017-03-14T05:28:34.949Z,5.41
2017-03-14T05:29:15.827Z,5.35
2017-03-14T05:29:56.706Z,5.38
2017-03-14T05:30:37.609Z,5.38
2017-03-14T05:31:18.494Z,5.3
2017-03-14T05:31:59.371Z,5.39
2017-03-14T05:32:40.254Z,5.33
2017-03-14T05:33:21.137Z,5.32
2017-03-14T05:34:02.017Z,5.36
2017-03-14T05:34:42.893Z,5.32
2017-03-14T05:35:23.773Z,5.35
2017-03-14T05:36:04.647Z,5.28
2017-03-14T05:36:45.523Z,5.29
2017-03-14T05:37:26.395Z,5.26
2017-03-14T05:38:07.273Z,5.21
2017-03-14T05:38:48.149Z,5.28
2017-03-14T05:39:29.028Z,5.35
2017-03-14T05:40:09.906Z,5.21
2017-03-14T05:40:50.781Z,5.32
2017-03-14T05:41:31.660Z,5.33
2017-03-14T05:42:12.545Z,5.26
2017-03-14T05:42:53.424Z,5.21
2017-03-14T05:43:34.299Z,5.25
2017-03-14T05:44:15.198Z,5.29
2017-03-14T05:44:56.079Z,5.26
2017-03-14T05:45:36.957Z,5.21
2017-03-14T05:46:17.833Z,5.25
2017-03-14T05:46:58.715Z,5.08
2017-03-14T05:47:39.593Z,5.07
2017-03-14T05:48:20.475Z,5.17
2017-03-14T05:49:01.359Z,5.11
2017-03-14T05:49:42.249Z,5.17
2017-03-14T05:50:23.123Z,5.07
2017-03-14T05:51:04.006Z,5.08
2017-03-14T05:51:44.882Z,4.97
2017-03-14T05:52:25.759Z,5.1
2017-03-14T05:53:06.636Z,5
2017-03-14T05:53:47.514Z,4.99
2017-03-14T05:54:28.392Z,5.02
2017-03-14T05:55:09.274Z,4.97
2017-03-14T05:55:50.151Z,4.97
2017-03-14T05:56:31.025Z,5.07
2017-03-14T05:57:11.906Z,5.1
2017-03-14T05:57:52.784Z,5.07
2017-03-14T05:58:33.657Z,5.07
2017-03-14T05:59:14.536Z,5.14
2017-03-14T05:59:55.416Z,5.11
2017-03-14T06:00:36.298Z,5.26
2017-03-14T06:01:17.181Z,5.2
2017-03-14T06:01:58.066Z,5.21
2017-03-14T06:02:38.946Z,5.26
2017-03-14T06:03:19.832Z,5.21
2017-03-14T06:04:00.715Z,5.28
2017-03-14T06:04:41.602Z,5.26
2017-03-14T06:05:22.477Z,5.41
2017-03-14T06:06:03.373Z,5.39
2017-03-14T06:06:44.280Z,5.35
2017-03-14T06:07:25.160Z,5.21
2017-03-14T06:08:06.028Z,5.32
2017-03-14T06:08:46.908Z,5.21
2017-03-14T06:09:27.785Z,5.26
2017-03-14T06:10:08.663Z,5.3
2017-03-14T06:10:49.546Z,5.32
2017-03-14T06:11:30.425Z,5.35
2017-03-14T06:12:11.310Z,5.43
2017-03-14T06:12:52.189Z,5.33
2017-03-14T06:13:33.063Z,5.43
2017-03-14T06:14:13.944Z,5.43
2017-03-14T06:14:54.822Z,5.26
2017-03-14T06:15:35.703Z,5.46
2017-03-14T06:16:16.582Z,5.26
2017-03-14T06:16:57.457Z,5.26
2017-03-14T06:17:38.333Z,5.29
2017-03-14T06:18:19.209Z,5.23
2017-03-14T06:19:00.093Z,5.33
2017-03-14T06:19:40.984Z,5.38
2017-03-14T06:20:21.871Z,5.38
2017-03-14T06:21:02.743Z,5.5
2017-03-14T06:21:43.690Z,5.39
2017-03-14T06:22:24.574Z,5.41
2017-03-14T06:23:05.455Z,5.47
2017-03-14T06:23:46.332Z,5.41
2017-03-14T06:24:27.210Z,5.46
2017-03-14T06:25:08.096Z,5.57
2017-03-14T06:25:48.970Z,5.65
2017-03-14T06:26:29.855Z,5.66
2017-03-14T06:27:10.725Z,5.62
2017-03-14T06:27:51.608Z,5.57
2017-03-14T06:28:32.488Z,5.59
2017-03-14T06:29:13.371Z,5.56
2017-03-14T06:29:54.250Z,5.56
2017-03-14T06:30:35.138Z,5.56
2017-03-14T06:31:16.014Z,5.56
2017-03-14T06:31:56.894Z,5.59
2017-03-14T06:32:37.771Z,5.66
2017-03-14T06:33:18.650Z,5.68
2017-03-14T06:33:59.523Z,5.66
2017-03-14T06:34:40.405Z,5.72
2017-03-14T06:35:21.288Z,5.59
2017-03-14T06:36:02.162Z,5.57
2017-03-14T06:36:43.053Z,5.53
2017-03-14T06:37:23.944Z,5.62
2017-03-14T06:38:04.825Z,5.62
2017-03-14T06:38:45.702Z,5.61
2017-03-14T06:39:26.577Z,5.66
2017-03-14T06:40:07.446Z,5.71
2017-03-14T06:40:48.334Z,5.65
2017-03-14T06:41:29.215Z,5.56
2017-03-14T06:42:10.095Z,5.54
2017-03-14T06:42:50.973Z,5.57
2017-03-14T06:43:31.856Z,5.56
2017-03-14T06:44:12.737Z,5.53
2017-03-14T06:44:53.626Z,5.51
2017-03-14T06:45:34.495Z,5.53
2017-03-14T06:46:15.377Z,5.43
2017-03-14T06:46:56.253Z,5.46
2017-03-14T06:47:37.146Z,5.48
2017-03-14T06:48:18.031Z,5.47
2017-03-14T06:48:58.905Z,5.47
2017-03-14T06:49:39.787Z,5.54
2017-03-14T06:50:20.672Z,5.43
2017-03-14T06:51:01.555Z,5.43
2017-03-14T06:51:42.421Z,5.47
2017-03-14T06:52:23.301Z,5.36
2017-03-14T06:53:04.188Z,5.39
2017-03-14T06:53:45.078Z,5.51
2017-03-14T06:54:25.957Z,5.59
2017-03-14T06:55:06.840Z,5.56
2017-03-14T06:55:47.723Z,5.46
2017-03-14T06:56:28.607Z,5.59
2017-03-14T06:57:09.487Z,5.61
2017-03-14T06:57:50.368Z,5.64
2017-03-14T06:58:31.251Z,5.59
2017-03-14T06:59:12.134Z,5.62
2017-03-14T06:59:53.019Z,5.62
2017-03-14T07:00:33.900Z,5.5
2017-03-14T07:01:14.781Z,5.51
2017-03-14T07:01:55.677Z,5.56
2017-03-14T07:02:36.557Z,5.61
2017-03-14T07:03:17.433Z,5.69
2017-03-14T07:03:58.321Z,5.69
2017-03-14T07:04:39.209Z,5.72
2017-03-14T07:05:20.092Z,5.82
2017-03-14T07:06:00.975Z,5.91
2017-03-14T07:06:41.860Z,5.9
2017-03-14T07:07:22.743Z,5.83
2017-03-14T07:08:03.621Z,5.56
2017-03-14T07:08:44.506Z,5.51
2017-03-14T07:09:25.387Z,5.43
2017-03-14T07:10:06.271Z,5.48
2017-03-14T07:10:47.152Z,5.36
2017-03-14T07:11:28.030Z,5.54
2017-03-14T07:12:08.902Z,5.35
2017-03-14T07:12:49.784Z,5.54
2017-03-14T07:13:30.665Z,5.47
2017-03-14T07:14:11.543Z,5.47
2017-03-14T07:14:52.418Z,5.46
2017-03-14T07:15:33.310Z,5.51
2017-03-14T07:16:14.192Z,5.41
2017-03-14T07:16:55.070Z,5.36
2017-03-14T07:17:35.957Z,5.51
2017-03-14T07:18:16.825Z,5.44
2017-03-14T07:18:57.739Z,5.48
2017-03-14T07:19:38.617Z,5.46
2017-03-14T07:20:19.487Z,5.59
2017-03-14T07:21:00.372Z,5.62
2017-03-14T07:21:41.259Z,5.57
2017-03-14T07:22:22.143Z,5.73
2017-03-14T07:23:03.023Z,5.69
2017-03-14T07:23:43.902Z,5.73
2017-03-14T07:24:24.791Z,5.65
2017-03-14T07:25:05.674Z,5.64
2017-03-14T07:25:46.552Z,5.53
2017-03-14T07:26:27.429Z,5.46
2017-03-14T07:27:08.315Z,5.56
2017-03-14T07:27:49.193Z,5.69
2017-03-14T07:28:30.072Z,5.75
2017-03-14T07:29:10.940Z,5.83
2017-03-14T07:29:51.812Z,5.98
2017-03-14T07:30:32.691Z,5.98
2017-03-14T07:31:13.561Z,5.9
2017-03-14T07:31:54.443Z,5.86
2017-03-14T07:32:35.322Z,5.79
2017-03-14T07:33:16.206Z,5.62
2017-03-14T07:33:57.123Z,5.53
2017-03-14T07:34:37.948Z,5.56
2017-03-14T07:35:18.829Z,5.46
2017-03-14T07:35:59.708Z,5.53
2017-03-14T07:36:40.598Z,5.71
2017-03-14T07:37:21.494Z,5.84
2017-03-14T07:38:02.367Z,5.98
2017-03-14T07:38:43.230Z,6.08
2017-03-14T07:39:24.100Z,5.91
2017-03-14T07:40:04.980Z,5.75
2017-03-14T07:40:45.859Z,5.75
2017-03-14T07:41:26.747Z,5.82
2017-03-14T07:42:07.623Z,5.86
2017-03-14T07:42:48.489Z,5.99
2017-03-14T07:43:29.369Z,6.07
2017-03-14T07:44:10.253Z,6.16
2017-03-14T07:44:51.122Z,6.14
2017-03-14T07:45:32.002Z,6.2
2017-03-14T07:46:12.870Z,6.05
2017-03-14T07:46:53.741Z,5.84
2017-03-14T07:47:34.625Z,5.68
2017-03-14T07:48:15.505Z,5.54
2017-03-14T07:48:56.385Z,5.61
2017-03-14T07:49:37.261Z,5.65
2017-03-14T07:50:18.138Z,5.75
2017-03-14T07:50:59.019Z,5.66
2017-03-14T07:51:39.901Z,5.71
2017-03-14T07:52:20.776Z,5.76
2017-03-14T07:53:01.659Z,5.75
2017-03-14T07:53:42.532Z,5.79
2017-03-14T07:54:23.409Z,5.66
2017-03-14T07:55:04.282Z,5.69
2017-03-14T07:55:45.152Z,5.68
2017-03-14T07:56:26.032Z,5.72
2017-03-14T07:57:06.900Z,5.79
2017-03-14T07:57:47.762Z,5.84
2017-03-14T07:58:28.648Z,5.71
2017-03-14T07:59:09.526Z,5.8
2017-03-14T07:59:50.405Z,5.72
2017-03-14T08:00:31.291Z,5.75
2017-03-14T08:01:12.164Z,5.83
2017-03-14T08:01:53.041Z,5.84
2017-03-14T08:02:33.933Z,5.94
2017-03-14T08:03:14.816Z,6.01
2017-03-14T08:03:55.712Z,6.04
2017-03-14T08:04:36.586Z,6.11
2017-03-14T08:05:17.466Z,6.16
2017-03-14T08:05:58.349Z,6.28
2017-03-14T08:06:39.223Z,6.22
2017-03-14T08:07:20.100Z,6.27
2017-03-14T08:08:00.991Z,6.3
2017-03-14T08:08:41.867Z,6.3
2017-03-14T08:09:22.752Z,6.28
2017-03-14T08:10:03.625Z,6.19
2017-03-14T08:10:44.503Z,6.33
2017-03-14T08:11:25.389Z,6.12
2017-03-14T08:12:06.271Z,6.19
2017-03-14T08:12:47.142Z,6.26
2017-03-14T08:13:28.024Z,6.05
2017-03-14T08:14:08.914Z,6.09
2017-03-14T08:14:49.799Z,6.08
2017-03-14T08:15:30.683Z,5.98
2017-03-14T08:16:11.564Z,5.83
2017-03-14T08:16:52.467Z,5.73
2017-03-14T08:17:33.350Z,5.66
2017-03-14T08:18:14.229Z,5.64
2017-03-14T08:18:55.107Z,5.76
2017-03-14T08:19:35.991Z,5.71
2017-03-14T08:20:16.865Z,5.91
2017-03-14T08:20:57.743Z,5.86
2017-03-14T08:21:38.623Z,5.83
2017-03-14T08:22:19.505Z,5.89
2017-03-14T08:23:00.392Z,5.73
2017-03-14T08:23:41.261Z,5.66
2017-03-14T08:24:22.139Z,5.71
2017-03-14T08:25:03.005Z,5.82
2017-03-14T08:25:43.883Z,5.86
2017-03-14T08:26:24.765Z,5.89
2017-03-14T08:27:05.649Z,5.94
2017-03-14T08:27:46.532Z,6.07
2017-03-14T08:28:27.411Z,6.05
2017-03-14T08:29:08.298Z,6.09
2017-03-14T08:29:49.182Z,6.08
2017-03-14T08:30:30.058Z,6.04
2017-03-14T08:31:10.941Z,5.94
2017-03-14T08:31:51.829Z,5.8
2017-03-14T08:32:32.715Z,5.83
2017-03-14T08:33:13.598Z,5.94
2017-03-14T08:33:54.485Z,6.08
2017-03-14T08:34:35.363Z,6.09
2017-03-14T08:35:16.244Z,6.05
2017-03-14T08:35:57.125Z,5.97
2017-03-14T08:36:38.002Z,6.17
2017-03-14T08:37:18.889Z,6.28
2017-03-14T08:37:59.772Z,6.3
2017-03-14T08:38:40.647Z,6.33
2017-03-14T08:39:21.530Z,6.3
2017-03-14T08:40:02.410Z,6.31
2017-03-14T08:41:56.069Z,6.2
2017-03-14T08:42:36.938Z,6.19
2017-03-14T08:43:17.821Z,6.08
2017-03-14T08:43:58.694Z,6.07
2017-03-14T08:44:39.577Z,6.14
2017-03-14T08:45:20.486Z,6.44
2017-03-14T08:46:08.360Z,6.39
2017-03-14T08:46:49.240Z,6.39
2017-03-14T08:47:32.722Z,6.31
2017-03-14T08:48:13.599Z,6.31
2017-03-14T08:48:54.473Z,6.38
2017-03-14T08:49:35.345Z,6.56
2017-03-14T08:50:16.225Z,6.54
2017-03-14T08:50:57.107Z,6.44
2017-03-14T08:51:37.986Z,6.42
2017-03-14T08:52:18.865Z,6.56
2017-03-14T08:52:59.745Z,6.56
2017-03-14T08:53:40.630Z,6.56
2017-03-14T08:54:21.510Z,6.62
2017-03-14T08:55:02.384Z,6.85
2017-03-14T08:55:43.262Z,7.07
2017-03-14T08:56:24.147Z,7.31
2017-03-14T08:57:05.033Z,7.43
2017-03-14T08:57:45.916Z,7.51
2017-03-14T08:58:26.795Z,7.21
2017-03-14T08:59:07.682Z,6.87
2017-03-14T08:59:48.559Z,7.1
2017-03-14T09:00:29.438Z,7.05
2017-03-14T09:01:10.318Z,7.13
2017-03-14T09:01:51.218Z,7.21
2017-03-14T09:02:32.100Z,7.33
2017-03-14T09:03:12.979Z,7.36
2017-03-14T09:03:53.861Z,7.21
2017-03-14T09:04:34.741Z,7.36
2017-03-14T09:05:15.622Z,7.35
2017-03-14T09:05:56.504Z,7.29
2017-03-14T09:06:37.371Z,7.32
2017-03-14T09:07:18.254Z,7.48
2017-03-14T09:07:59.142Z,7.66
2017-03-14T09:08:40.043Z,7.72